Time;durP1;ratioP1;P1;durP2;ratioP2;P2;SDS_P1;SDS_P2;PMS_P1;PMS_P2;Temp;Humidity;BMP_temperature;BMP_pressure;BME280_temperature;BME280_humidity;BME280_pressure;Samples;Min_cycle;Max_cycle;Signal;HPM_P1;HPM_P2
2023/09/26 00:00:36;;;;;;;10.70;7.13;;;;;;;-145.50;100.00;65435.88;5056362;28;20052;-73
2023/09/26 00:03:05;;;;;;;10.82;6.97;;;;;;;-145.50;100.00;65435.88;5054065;28;20052;-73
2023/09/26 00:05:32;;;;;;;11.20;7.15;;;;;;;-145.50;100.00;65435.88;5044150;28;20502;-73
2023/09/26 00:08:03;;;;;;;11.65;7.03;;;;;;;-145.50;100.00;65435.88;5051083;28;20102;-73
2023/09/26 00:10:31;;;;;;;9.98;6.40;;;;;;;-145.50;100.00;65435.88;5049125;28;20556;-73
2023/09/26 00:12:57;;;;;;;9.63;6.60;;;;;;;-145.50;100.00;65435.88;5058203;28;20048;-74
2023/09/26 00:15:24;;;;;;;12.70;6.82;;;;;;;-145.50;100.00;65435.88;5059490;28;20122;-74
2023/09/26 00:17:50;;;;;;;9.18;6.95;;;;;;;-145.50;100.00;65435.88;5038976;28;20110;-73
2023/09/26 00:20:18;;;;;;;9.10;6.38;;;;;;;-145.50;100.00;65435.88;5059154;28;20416;-73
2023/09/26 00:22:45;;;;;;;8.00;7.05;;;;;;;-145.50;100.00;65435.88;5057637;28;20132;-73
2023/09/26 00:25:11;;;;;;;9.75;7.03;;;;;;;-145.50;100.00;65435.88;5050153;28;20653;-74
2023/09/26 00:27:38;;;;;;;8.85;6.63;;;;;;;-145.50;100.00;65435.88;5050382;28;20056;-73
2023/09/26 00:30:05;;;;;;;9.35;6.97;;;;;;;-145.50;100.00;65435.88;5054025;28;20048;-73
2023/09/26 00:32:32;;;;;;;11.13;7.28;;;;;;;-145.50;100.00;65435.88;5046427;28;20512;-73
2023/09/26 00:34:58;;;;;;;8.93;6.53;;;;;;;-145.50;100.00;65435.88;5050050;28;20135;-75
2023/09/26 00:37:25;;;;;;;9.23;6.70;;;;;;;-145.50;100.00;65435.88;5047839;28;20061;-73
2023/09/26 00:39:53;;;;;;;17.27;7.60;;;;;;;-145.50;100.00;65435.88;5064809;28;20198;-73
2023/09/26 00:42:19;;;;;;;9.25;6.20;;;;;;;-145.50;100.00;65435.88;5058000;28;20329;-73
2023/09/26 00:44:46;;;;;;;8.50;6.25;;;;;;;-145.50;100.00;65435.88;5048822;28;20105;-73
2023/09/26 00:47:12;;;;;;;8.63;6.47;;;;;;;-145.50;100.00;65435.88;5049921;28;20416;-73
2023/09/26 00:49:39;;;;;;;8.82;6.57;;;;;;;-145.50;100.00;65435.88;5053519;28;20165;-73
2023/09/26 00:52:06;;;;;;;9.27;6.65;;;;;;;-145.50;100.00;65435.88;5056794;28;20125;-73
2023/09/26 00:54:33;;;;;;;10.82;6.88;;;;;;;-145.50;100.00;65435.88;5047325;28;20052;-73
2023/09/26 00:57:01;;;;;;;8.05;6.22;;;;;;;-145.50;100.00;65435.88;5062890;28;20052;-73
2023/09/26 00:59:28;;;;;;;11.20;6.50;;;;;;;-145.50;100.00;65435.88;5039729;28;20151;-73
2023/09/26 01:01:55;;;;;;;8.10;6.55;;;;;;;-145.50;100.00;65435.88;5060013;28;20059;-73
2023/09/26 01:04:22;;;;;;;10.25;6.03;;;;;;;-145.50;100.00;65435.88;5049129;28;20210;-73
2023/09/26 01:06:49;;;;;;;9.82;5.78;;;;;;;-145.50;100.00;65435.88;5058534;28;20450;-73
2023/09/26 01:09:16;;;;;;;9.13;6.18;;;;;;;-145.50;100.00;65435.88;5046922;28;20440;-73
2023/09/26 01:11:43;;;;;;;7.15;5.85;;;;;;;-145.50;100.00;65435.88;5055132;28;20139;-73
2023/09/26 01:14:09;;;;;;;7.00;5.60;;;;;;;-145.50;100.00;65435.88;5044927;28;20045;-74
2023/09/26 01:16:37;;;;;;;8.63;5.70;;;;;;;-145.50;100.00;65435.88;5051072;28;20489;-73
2023/09/26 01:19:04;;;;;;;7.65;5.88;;;;;;;-145.50;100.00;65435.88;5064903;28;20133;-73
2023/09/26 01:21:32;;;;;;;8.95;7.18;;;;;;;-145.50;100.00;65435.88;5051566;28;20669;-73
2023/09/26 01:23:59;;;;;;;9.43;6.80;;;;;;;-145.50;100.00;65435.88;5053161;28;20481;-74
2023/09/26 01:26:33;;;;;;;8.43;6.70;;;;;;;-145.50;100.00;65435.88;5034712;28;20144;-73
2023/09/26 01:28:59;;;;;;;11.13;6.80;;;;;;;-145.50;100.00;65435.88;5056515;28;20053;-73
2023/09/26 01:31:26;;;;;;;12.18;6.82;;;;;;;-145.50;100.00;65435.88;5055759;28;20044;-73
2023/09/26 01:33:53;;;;;;;9.55;7.10;;;;;;;-145.50;100.00;65435.88;5053639;28;20252;-73
2023/09/26 01:36:21;;;;;;;11.82;7.72;;;;;;;-145.50;100.00;65435.88;5062266;28;20048;-73
2023/09/26 01:38:48;;;;;;;11.27;7.43;;;;;;;-145.50;100.00;65435.88;5041286;28;20053;-73
2023/09/26 01:41:14;;;;;;;7.93;6.72;;;;;;;-145.50;100.00;65435.88;5054677;28;20398;-73
2023/09/26 01:43:40;;;;;;;10.88;7.03;;;;;;;-145.50;100.00;65435.88;5050529;28;20049;-73
2023/09/26 01:46:07;;;;;;;9.65;6.93;;;;;;;-145.50;100.00;65435.88;5061310;28;20558;-74
2023/09/26 01:48:34;;;;;;;9.20;6.68;;;;;;;-145.50;100.00;65435.88;5043509;28;20049;-73
2023/09/26 01:51:04;;;;;;;9.60;7.10;;;;;;;-145.50;100.00;65435.88;5040785;28;20056;-74
2023/09/26 01:53:31;;;;;;;10.70;7.03;;;;;;;-145.50;100.00;65435.88;5058871;28;20041;-73
2023/09/26 01:55:59;;;;;;;9.85;6.85;;;;;;;-145.50;100.00;65435.88;5046509;28;20114;-73
2023/09/26 01:58:26;;;;;;;8.00;6.40;;;;;;;-145.50;100.00;65435.88;5046542;28;20048;-73
2023/09/26 02:00:52;;;;;;;9.45;6.68;;;;;;;-145.50;100.00;65435.88;5040291;28;20481;-73
2023/09/26 02:03:19;;;;;;;9.00;7.20;;;;;;;-145.50;100.00;65435.88;5053097;28;20049;-73
2023/09/26 02:05:49;;;;;;;9.60;6.57;;;;;;;-145.50;100.00;65435.88;5056995;28;20080;-73
2023/09/26 02:08:16;;;;;;;8.95;6.50;;;;;;;-145.50;100.00;65435.88;5046007;28;20407;-73
2023/09/26 02:10:42;;;;;;;12.68;7.40;;;;;;;-145.50;100.00;65435.88;5064050;28;20048;-73
2023/09/26 02:13:09;;;;;;;12.25;7.20;;;;;;;-145.50;100.00;65435.88;5056431;28;20497;-73
2023/09/26 02:15:36;;;;;;;9.70;7.30;;;;;;;-145.50;100.00;65435.88;5042691;28;20143;-73
2023/09/26 02:18:03;;;;;;;10.30;7.10;;;;;;;-145.50;100.00;65435.88;5036431;28;20490;-74
2023/09/26 02:20:30;;;;;;;8.73;7.10;;;;;;;-145.50;100.00;65435.88;5044443;28;20082;-74
2023/09/26 02:22:57;;;;;;;12.18;7.78;;;;;;;-145.50;100.00;65435.88;5054887;28;20278;-73
2023/09/26 02:25:24;;;;;;;10.05;7.38;;;;;;;-145.50;100.00;65435.88;5053314;28;20567;-73
2023/09/26 02:27:51;;;;;;;10.50;7.55;;;;;;;-145.50;100.00;65435.88;5055846;28;20052;-72
2023/09/26 02:30:20;;;;;;;10.95;6.97;;;;;;;-145.50;100.00;65435.88;5038199;28;20079;-71
2023/09/26 02:32:46;;;;;;;13.40;8.20;;;;;;;-145.50;100.00;65435.88;5053294;28;20140;-71
2023/09/26 02:35:15;;;;;;;9.23;7.05;;;;;;;-145.50;100.00;65435.88;5052305;28;20048;-72
2023/09/26 02:37:43;;;;;;;10.07;7.25;;;;;;;-145.50;100.00;65435.88;5066004;28;20329;-72
2023/09/26 02:40:10;;;;;;;9.77;7.60;;;;;;;-145.50;100.00;65435.88;5059541;28;20421;-72
2023/09/26 02:42:38;;;;;;;9.43;7.05;;;;;;;-145.50;100.00;65435.88;5047873;28;20045;-72
2023/09/26 02:45:05;;;;;;;11.20;7.63;;;;;;;-145.50;100.00;65435.88;5040553;28;20486;-72
2023/09/26 02:47:32;;;;;;;10.88;7.03;;;;;;;-145.50;100.00;65435.88;5053696;28;20055;-71
2023/09/26 02:49:59;;;;;;;12.40;7.40;;;;;;;-145.50;100.00;65435.88;5069476;28;20419;-71
2023/09/26 02:52:25;;;;;;;10.23;7.10;;;;;;;-145.50;100.00;65435.88;5063993;28;20661;-72
2023/09/26 02:54:53;;;;;;;9.50;7.35;;;;;;;-145.50;100.00;65435.88;5049575;28;20055;-72
2023/09/26 02:57:22;;;;;;;8.85;7.10;;;;;;;-145.50;100.00;65435.88;5046970;28;20122;-71
2023/09/26 02:59:48;;;;;;;10.00;7.57;;;;;;;-145.50;100.00;65435.88;5045695;28;20080;-72
2023/09/26 03:02:15;;;;;;;9.13;7.00;;;;;;;-145.50;100.00;65435.88;5067580;28;20068;-72
2023/09/26 03:04:42;;;;;;;11.48;7.97;;;;;;;-145.50;100.00;65435.88;5050911;28;20057;-72
2023/09/26 03:07:09;;;;;;;8.00;7.03;;;;;;;-145.50;100.00;65435.88;5060945;28;20122;-72
2023/09/26 03:09:36;;;;;;;10.77;7.20;;;;;;;-145.50;100.00;65435.88;5053408;28;20049;-72
2023/09/26 03:12:05;;;;;;;9.57;6.78;;;;;;;-145.50;100.00;65435.88;5055167;28;20356;-72
2023/09/26 03:14:31;;;;;;;10.13;7.40;;;;;;;-145.50;100.00;65435.88;5063270;28;20048;-72
2023/09/26 03:16:59;;;;;;;9.65;7.25;;;;;;;-145.50;100.00;65435.88;5054136;28;20501;-71
2023/09/26 03:19:26;;;;;;;8.57;6.43;;;;;;;-145.50;100.00;65435.88;5066942;28;20052;-72
2023/09/26 03:21:52;;;;;;;10.40;6.70;;;;;;;-145.50;100.00;65435.88;5056618;28;20049;-72
2023/09/26 03:24:19;;;;;;;11.57;7.35;;;;;;;-145.50;100.00;65435.88;5051119;28;20081;-72
2023/09/26 03:26:46;;;;;;;10.05;6.88;;;;;;;-145.50;100.00;65435.88;5058683;28;20048;-72
2023/09/26 03:29:12;;;;;;;9.13;6.78;;;;;;;-145.50;100.00;65435.88;5058529;28;20080;-74
2023/09/26 03:31:40;;;;;;;10.00;7.80;;;;;;;-145.50;100.00;65435.88;5055756;28;20059;-72
2023/09/26 03:34:08;;;;;;;;;;;;;;;-145.50;100.00;65435.88;5049475;28;20484;-72
2023/09/26 03:36:36;;;;;;;9.52;7.32;;;;;;;-145.50;100.00;65435.88;5060255;28;20369;-72
2023/09/26 03:39:03;;;;;;;9.32;6.97;;;;;;;-145.50;100.00;65435.88;5048849;28;20098;-72
2023/09/26 03:41:32;;;;;;;9.25;7.18;;;;;;;-145.50;100.00;65435.88;5044576;28;20083;-72
2023/09/26 03:43:59;;;;;;;11.60;7.30;;;;;;;-145.50;100.00;65435.88;5048830;28;20501;-72
2023/09/26 03:46:25;;;;;;;9.98;7.43;;;;;;;-145.50;100.00;65435.88;5043190;28;20049;-71
2023/09/26 03:48:52;;;;;;;9.85;7.47;;;;;;;-145.50;100.00;65435.88;5061809;28;20055;-72
2023/09/26 03:51:19;;;;;;;10.68;7.57;;;;;;;-145.50;100.00;65435.88;5057860;28;20048;-72
2023/09/26 03:53:46;;;;;;;10.00;7.30;;;;;;;-145.50;100.00;65435.88;5047684;28;20289;-75
2023/09/26 03:56:12;;;;;;;13.85;7.25;;;;;;;-145.50;100.00;65435.88;5046826;28;20048;-73
2023/09/26 03:58:39;;;;;;;10.02;7.28;;;;;;;-145.50;100.00;65435.88;5056591;28;20428;-72
2023/09/26 04:01:08;;;;;;;8.93;7.10;;;;;;;-145.50;100.00;65435.88;5062959;28;20052;-72
2023/09/26 04:03:36;;;;;;;9.98;7.47;;;;;;;-145.50;100.00;65435.88;5057970;28;20048;-72
2023/09/26 04:06:03;;;;;;;8.70;7.13;;;;;;;-145.50;100.00;65435.88;5063587;28;20079;-72
2023/09/26 04:08:29;;;;;;;10.35;7.43;;;;;;;-145.50;100.00;65435.88;5043042;28;20155;-72
2023/09/26 04:10:56;;;;;;;9.60;6.97;;;;;;;-145.50;100.00;65435.88;5066979;28;20052;-72
2023/09/26 04:13:22;;;;;;;10.95;7.05;;;;;;;-145.50;100.00;65435.88;5057183;28;20056;-72
2023/09/26 04:15:49;;;;;;;8.55;7.15;;;;;;;-145.50;100.00;65435.88;5066265;28;20083;-72
2023/09/26 04:18:16;;;;;;;10.35;7.80;;;;;;;-145.50;100.00;65435.88;5061582;28;20049;-72
2023/09/26 04:20:44;;;;;;;12.55;7.45;;;;;;;-145.50;100.00;65435.88;5053370;28;20056;-72
2023/09/26 04:23:11;;;;;;;10.98;7.55;;;;;;;-145.50;100.00;65435.88;5043005;28;20052;-72
2023/09/26 04:25:38;;;;;;;10.25;7.07;;;;;;;-145.50;100.00;65435.88;5046684;28;20053;-72
2023/09/26 04:28:05;;;;;;;10.73;7.25;;;;;;;-145.50;100.00;65435.88;5049262;28;20474;-72
2023/09/26 04:30:37;;;;;;;9.45;7.05;;;;;;;-145.50;100.00;65435.88;5050286;28;20045;-72
2023/09/26 04:33:04;;;;;;;9.48;6.85;;;;;;;-145.50;100.00;65435.88;5066679;28;20435;-72
2023/09/26 04:35:31;;;;;;;13.43;6.85;;;;;;;-145.50;100.00;65435.88;5046204;28;20049;-72
2023/09/26 04:37:57;;;;;;;12.05;7.53;;;;;;;-145.50;100.00;65435.88;5056669;28;20467;-72
2023/09/26 04:40:24;;;;;;;11.23;7.10;;;;;;;-145.50;100.00;65435.88;5056139;28;20052;-72
2023/09/26 04:42:52;;;;;;;9.43;7.13;;;;;;;-145.50;100.00;65435.88;5049288;28;20045;-72
2023/09/26 04:45:18;;;;;;;8.80;6.60;;;;;;;-145.50;100.00;65435.88;5054486;28;20071;-72
2023/09/26 04:47:45;;;;;;;12.00;7.07;;;;;;;-145.50;100.00;65435.88;5047546;28;20405;-72
2023/09/26 04:50:12;;;;;;;11.40;7.88;;;;;;;-145.50;100.00;65435.88;5061854;28;20070;-73
2023/09/26 04:52:39;;;;;;;11.68;7.40;;;;;;;-145.50;100.00;65435.88;5062628;28;20052;-73
2023/09/26 04:55:06;;;;;;;11.23;7.65;;;;;;;-145.50;100.00;65435.88;5047175;28;20124;-72
2023/09/26 04:57:33;;;;;;;9.80;7.35;;;;;;;-145.50;100.00;65435.88;5064900;28;20040;-72
2023/09/26 04:59:59;;;;;;;11.32;8.07;;;;;;;-145.50;100.00;65435.88;5046929;28;20141;-72
2023/09/26 05:02:26;;;;;;;8.60;7.18;;;;;;;-145.50;100.00;65435.88;5053745;28;20045;-72
2023/09/26 05:04:52;;;;;;;9.27;7.13;;;;;;;-145.50;100.00;65435.88;5042860;28;20063;-72
2023/09/26 05:07:19;;;;;;;9.20;7.10;;;;;;;-145.50;100.00;65435.88;5051859;28;20088;-72
2023/09/26 05:09:45;;;;;;;10.60;7.28;;;;;;;-145.50;100.00;65435.88;5064819;28;20136;-72
2023/09/26 05:12:12;;;;;;;15.35;7.70;;;;;;;-145.50;100.00;65435.88;5050430;28;20124;-72
2023/09/26 05:14:38;;;;;;;12.25;7.47;;;;;;;-145.50;100.00;65435.88;5048114;28;20083;-72
2023/09/26 05:17:05;;;;;;;17.02;8.20;;;;;;;-145.50;100.00;65435.88;5040012;28;20052;-73
2023/09/26 05:19:32;;;;;;;12.90;7.93;;;;;;;-145.50;100.00;65435.88;5052276;28;20147;-72
2023/09/26 05:21:58;;;;;;;9.55;7.35;;;;;;;-145.50;100.00;65435.88;5053893;28;20131;-72
2023/09/26 05:24:25;;;;;;;10.60;7.40;;;;;;;-145.50;100.00;65435.88;5047205;28;20084;-72
2023/09/26 05:26:52;;;;;;;11.20;7.40;;;;;;;-145.50;100.00;65435.88;5060255;28;20095;-71
2023/09/26 05:29:18;;;;;;;10.82;7.55;;;;;;;-145.50;100.00;65435.88;5054582;28;20074;-71
2023/09/26 05:31:46;;;;;;;11.05;7.50;;;;;;;-145.50;100.00;65435.88;5054246;28;20044;-72
2023/09/26 05:34:13;;;;;;;12.73;7.63;;;;;;;-145.50;100.00;65435.88;5047996;28;20486;-74
2023/09/26 05:36:39;;;;;;;9.63;7.78;;;;;;;-145.50;100.00;65435.88;5057238;28;20481;-72
2023/09/26 05:39:07;;;;;;;13.82;8.43;;;;;;;-145.50;100.00;65435.88;5059691;28;20126;-74
2023/09/26 05:41:33;;;;;;;11.10;8.27;;;;;;;-145.50;100.00;65435.88;5062959;28;20075;-72
2023/09/26 05:44:00;;;;;;;13.68;8.07;;;;;;;-145.50;100.00;65435.88;5054675;28;20555;-73
2023/09/26 05:46:27;;;;;;;13.25;9.95;;;;;;;-145.50;100.00;65435.88;5053823;28;20151;-72
2023/09/26 05:48:53;;;;;;;15.80;10.60;;;;;;;-145.50;100.00;65435.88;5052978;28;20046;-72
2023/09/26 05:51:20;;;;;;;14.30;12.00;;;;;;;-145.50;100.00;65435.88;5041535;28;20052;-72
2023/09/26 05:53:46;;;;;;;12.65;9.70;;;;;;;-145.50;100.00;65435.88;5064712;28;20067;-72
2023/09/26 05:56:13;;;;;;;9.63;8.40;;;;;;;-145.50;100.00;65435.88;5057185;28;20055;-72
2023/09/26 05:58:39;;;;;;;10.27;8.25;;;;;;;-145.50;100.00;65435.88;5046167;28;20331;-72
2023/09/26 06:01:08;;;;;;;12.85;8.52;;;;;;;-145.50;100.00;65435.88;5059188;28;20048;-73
2023/09/26 06:03:35;;;;;;;11.52;8.23;;;;;;;-145.50;100.00;65435.88;5057216;28;20060;-72
2023/09/26 06:06:05;;;;;;;11.90;8.15;;;;;;;-145.50;100.00;65435.88;5056831;28;20047;-72
2023/09/26 06:08:33;;;;;;;14.52;9.13;;;;;;;-145.50;100.00;65435.88;5051048;28;20049;-72
2023/09/26 06:11:00;;;;;;;;;;;;;;;-145.50;100.00;65435.88;5056171;28;20061;-72
2023/09/26 06:13:27;;;;;;;13.23;8.35;;;;;;;-145.50;100.00;65435.88;5049155;28;20348;-72
2023/09/26 06:15:53;;;;;;;12.48;8.15;;;;;;;-145.50;100.00;65435.88;5059901;28;20076;-72
2023/09/26 06:18:21;;;;;;;14.75;9.57;;;;;;;-145.50;100.00;65435.88;5051912;28;20139;-72
2023/09/26 06:20:48;;;;;;;13.48;8.80;;;;;;;-145.50;100.00;65435.88;5051426;28;20049;-72
2023/09/26 06:23:14;;;;;;;11.07;8.70;;;;;;;-145.50;100.00;65435.88;5067774;28;20048;-73
2023/09/26 06:25:41;;;;;;;16.75;9.35;;;;;;;-145.50;100.00;65435.88;5047876;28;20056;-72
2023/09/26 06:28:21;;;;;;;15.63;8.70;;;;;;;-145.50;100.00;65435.88;5061629;28;20433;-73
2023/09/26 06:30:48;;;;;;;14.90;9.25;;;;;;;-145.50;100.00;65435.88;5064566;28;20074;-72
2023/09/26 06:33:14;;;;;;;18.70;9.20;;;;;;;-145.50;100.00;65435.88;5058796;28;20040;-72
2023/09/26 06:35:41;;;;;;;14.80;8.32;;;;;;;-145.50;100.00;65435.88;5059908;28;20398;-73
2023/09/26 06:38:08;;;;;;;12.07;8.18;;;;;;;-145.50;100.00;65435.88;5056558;28;20467;-72
2023/09/26 06:40:35;;;;;;;14.40;9.07;;;;;;;-145.50;100.00;65435.88;5062734;28;20053;-73
2023/09/26 06:43:02;;;;;;;13.20;8.57;;;;;;;-145.50;100.00;65435.88;5047510;28;20063;-73
2023/09/26 06:45:30;;;;;;;13.47;8.80;;;;;;;-145.50;100.00;65435.88;5058934;28;20052;-73
2023/09/26 06:47:57;;;;;;;22.02;9.20;;;;;;;-145.50;100.00;65435.88;5058129;28;20068;-72
2023/09/26 06:50:23;;;;;;;14.05;8.88;;;;;;;-145.50;100.00;65435.88;5055672;28;20056;-72
2023/09/26 06:52:50;;;;;;;14.00;8.50;;;;;;;-145.50;100.00;65435.88;5057747;28;20165;-74
2023/09/26 06:55:16;;;;;;;13.43;8.88;;;;;;;-145.50;100.00;65435.88;5043442;28;20544;-72
2023/09/26 06:57:43;;;;;;;16.42;8.90;;;;;;;-145.50;100.00;65435.88;5065043;28;20492;-72
2023/09/26 07:00:16;;;;;;;13.60;8.77;;;;;;;-145.50;100.00;65435.88;5049207;28;20178;-72
2023/09/26 07:02:43;;;;;;;14.88;8.32;;;;;;;-145.50;100.00;65435.88;5061480;28;20520;-72
2023/09/26 07:05:10;;;;;;;18.90;8.20;;;;;;;-145.50;100.00;65435.88;5059945;28;20263;-73
2023/09/26 07:07:37;;;;;;;14.30;8.00;;;;;;;-145.50;100.00;65435.88;5037586;28;20171;-73
2023/09/26 07:10:04;;;;;;;19.85;8.90;;;;;;;-145.50;100.00;65435.88;5056911;28;20094;-73
2023/09/26 07:12:30;;;;;;;15.63;8.27;;;;;;;-145.50;100.00;65435.88;5050809;28;20498;-73
2023/09/26 07:14:57;;;;;;;17.45;8.55;;;;;;;-145.50;100.00;65435.88;5058099;28;20044;-73
2023/09/26 07:17:24;;;;;;;18.30;10.30;;;;;;;-145.50;100.00;65435.88;5047405;28;20065;-73
2023/09/26 07:19:50;;;;;;;19.48;8.80;;;;;;;-145.50;100.00;65435.88;5054832;28;20127;-73
2023/09/26 07:22:18;;;;;;;12.90;8.18;;;;;;;-145.50;100.00;65435.88;5050928;28;20045;-72
2023/09/26 07:24:49;;;;;;;16.25;9.23;;;;;;;-145.50;100.00;65435.88;5056295;28;20073;-73
2023/09/26 07:27:19;;;;;;;17.48;9.20;;;;;;;-145.50;100.00;65435.88;5063288;28;20517;-73
2023/09/26 07:29:46;;;;;;;13.60;9.85;;;;;;;-145.50;100.00;65435.88;5061203;28;20322;-73
2023/09/26 07:32:15;;;;;;;13.50;9.25;;;;;;;-145.50;100.00;65435.88;5065128;28;20052;-73
2023/09/26 07:34:42;;;;;;;16.85;9.32;;;;;;;-145.50;100.00;65435.88;5052982;28;20140;-72
2023/09/26 07:37:11;;;;;;;12.30;9.02;;;;;;;-145.50;100.00;65435.88;5068022;28;20053;-74
2023/09/26 07:39:37;;;;;;;18.70;9.85;;;;;;;-145.50;100.00;65435.88;5063884;28;20049;-73
2023/09/26 07:42:04;;;;;;;14.15;8.88;;;;;;;-145.50;100.00;65435.88;5042973;28;20052;-73
2023/09/26 07:44:32;;;;;;;12.30;9.05;;;;;;;-145.50;100.00;65435.88;5065383;28;20056;-73
2023/09/26 07:46:58;;;;;;;13.35;9.00;;;;;;;-145.50;100.00;65435.88;5043845;28;20052;-72
2023/09/26 07:49:25;;;;;;;12.35;8.85;;;;;;;-145.50;100.00;65435.88;5045197;28;20562;-73
2023/09/26 07:51:52;;;;;;;13.90;9.00;;;;;;;-145.50;100.00;65435.88;5060023;28;20082;-73
2023/09/26 07:54:18;;;;;;;15.13;8.15;;;;;;;-145.50;100.00;65435.88;5065826;28;20041;-73
2023/09/26 07:56:45;;;;;;;12.68;8.20;;;;;;;-145.50;100.00;65435.88;5066487;28;20102;-73
2023/09/26 07:59:11;;;;;;;13.65;8.68;;;;;;;-145.50;100.00;65435.88;5053286;28;20052;-72
2023/09/26 08:01:38;;;;;;;12.57;8.85;;;;;;;-145.50;100.00;65435.88;5058439;28;20044;-73
2023/09/26 08:04:07;;;;;;;10.93;7.50;;;;;;;-145.50;100.00;65435.88;5059213;28;20060;-73
2023/09/26 08:06:33;;;;;;;;;;;;;;;-145.50;100.00;65435.88;5056746;28;20055;-73
2023/09/26 08:09:00;;;;;;;12.25;8.40;;;;;;;-145.50;100.00;65435.88;5052253;28;20546;-73
2023/09/26 08:11:28;;;;;;;14.35;8.93;;;;;;;-145.50;100.00;65435.88;5052565;28;20060;-72
2023/09/26 08:13:55;;;;;;;15.15;8.90;;;;;;;-145.50;100.00;65435.88;5066417;28;20481;-73
2023/09/26 08:16:22;;;;;;;9.65;6.93;;;;;;;-145.50;100.00;65435.88;5057992;28;20402;-72
2023/09/26 08:18:50;;;;;;;11.20;7.33;;;;;;;-145.50;100.00;65435.88;5054896;28;20122;-73
2023/09/26 08:21:17;;;;;;;11.75;8.07;;;;;;;-145.50;100.00;65435.88;5054905;28;20048;-73
2023/09/26 08:23:44;;;;;;;10.85;7.55;;;;;;;-145.50;100.00;65435.88;5058226;28;20052;-73
2023/09/26 08:26:11;;;;;;;10.50;7.85;;;;;;;-145.50;100.00;65435.88;5054084;28;20117;-73
2023/09/26 08:28:39;;;;;;;14.27;7.60;;;;;;;-145.50;100.00;65435.88;5065968;28;20405;-73
2023/09/26 08:31:08;;;;;;;10.27;6.88;;;;;;;-145.50;100.00;65435.88;5065130;28;20053;-73
2023/09/26 08:33:35;;;;;;;12.35;7.05;;;;;;;-145.50;100.00;65435.88;5052804;28;20213;-73
2023/09/26 08:36:05;;;;;;;9.02;7.00;;;;;;;-145.50;100.00;65435.88;5049759;28;20056;-73
2023/09/26 08:38:31;;;;;;;7.55;5.93;;;;;;;-145.50;100.00;65435.88;5049505;28;20111;-73
2023/09/26 08:40:58;;;;;;;7.60;5.20;;;;;;;-145.50;100.00;65435.88;5060846;28;20073;-73
2023/09/26 08:43:26;;;;;;;11.90;7.07;;;;;;;-145.50;100.00;65435.88;5057465;28;20071;-73
2023/09/26 08:45:53;;;;;;;10.88;6.78;;;;;;;-145.50;100.00;65435.88;5056938;28;20087;-72
2023/09/26 08:48:20;;;;;;;10.25;6.38;;;;;;;-145.50;100.00;65435.88;5043113;28;20073;-73
2023/09/26 08:50:49;;;;;;;11.85;6.60;;;;;;;-145.50;100.00;65435.88;5047111;28;20107;-72
2023/09/26 08:53:16;;;;;;;8.68;6.10;;;;;;;-145.50;100.00;65435.88;5052778;28;20048;-73
2023/09/26 08:55:43;;;;;;;10.23;5.95;;;;;;;-145.50;100.00;65435.88;5041767;28;20083;-73
2023/09/26 08:58:10;;;;;;;9.68;6.43;;;;;;;-145.50;100.00;65435.88;5066642;28;20056;-73
2023/09/26 09:00:37;;;;;;;12.50;6.50;;;;;;;-145.50;100.00;65435.88;5050117;28;20417;-73
2023/09/26 09:03:04;;;;;;;10.70;6.15;;;;;;;-145.50;100.00;65435.88;5050364;28;20052;-73
2023/09/26 09:05:30;;;;;;;10.77;6.57;;;;;;;-145.50;100.00;65435.88;5063520;28;20524;-73
2023/09/26 09:07:57;;;;;;;9.32;5.70;;;;;;;-145.50;100.00;65435.88;5058718;28;20056;-73
2023/09/26 09:10:24;;;;;;;11.70;6.22;;;;;;;-145.50;100.00;65435.88;5050455;28;20090;-73
2023/09/26 09:13:01;;;;;;;9.07;4.90;;;;;;;-145.50;100.00;65435.88;5051889;28;20056;-73
2023/09/26 09:15:30;;;;;;;8.90;6.30;;;;;;;-145.50;100.00;65435.88;5044138;28;20134;-73
2023/09/26 09:17:57;;;;;;;9.43;5.80;;;;;;;-145.50;100.00;65435.88;5039307;28;20071;-73
2023/09/26 09:20:34;;;;;;;10.48;6.22;;;;;;;-145.50;100.00;65435.88;5046946;28;20045;-73
2023/09/26 09:23:06;;;;;;;11.68;5.90;;;;;;;-145.50;100.00;65435.88;5056687;28;20134;-73
2023/09/26 09:25:37;;;;;;;11.07;6.20;;;;;;;-145.50;100.00;65435.88;5064996;28;20048;-74
2023/09/26 09:28:09;;;;;;;9.07;5.88;;;;;;;-145.50;100.00;65435.88;5056598;28;20055;-73
2023/09/26 09:30:38;;;;;;;9.32;4.80;;;;;;;-145.50;100.00;65435.88;5049999;28;20423;-73
2023/09/26 09:33:06;;;;;;;6.80;4.28;;;;;;;-145.50;100.00;65435.88;5061344;28;20060;-72
2023/09/26 09:35:33;;;;;;;;;;;;;;;-145.50;100.00;65435.88;5049861;28;20078;-73
2023/09/26 09:38:00;;;;;;;11.48;5.80;;;;;;;-145.50;100.00;65435.88;5060604;28;20393;-73
2023/09/26 09:40:28;;;;;;;10.18;5.68;;;;;;;-145.50;100.00;65435.88;5048549;28;20133;-72
2023/09/26 09:42:55;;;;;;;8.60;5.32;;;;;;;-145.50;100.00;65435.88;5061577;28;20433;-73
2023/09/26 09:45:22;;;;;;;12.45;6.20;;;;;;;-145.50;100.00;65435.88;5068734;28;20464;-73
2023/09/26 09:47:48;;;;;;;10.95;6.43;;;;;;;-145.50;100.00;65435.88;5042908;28;20055;-73
2023/09/26 09:50:16;;;;;;;10.15;6.32;;;;;;;-145.50;100.00;65435.88;5049585;28;20029;-73
2023/09/26 09:52:44;;;;;;;10.45;6.28;;;;;;;-145.50;100.00;65435.88;5053611;28;20052;-73
2023/09/26 09:55:13;;;;;;;;;;;;;;;-145.50;100.00;65435.88;5059906;28;20141;-73
2023/09/26 09:57:50;;;;;;;10.15;6.32;;;;;;;-145.50;100.00;65435.88;5056342;28;19935;-72
2023/09/26 10:00:19;;;;;;;11.38;6.72;;;;;;;-145.50;100.00;65435.88;5072666;28;20096;-73
2023/09/26 10:02:46;;;;;;;9.52;6.07;;;;;;;-145.50;100.00;65435.88;5085751;28;20041;-73
2023/09/26 10:05:14;;;;;;;9.35;5.97;;;;;;;-145.50;100.00;65435.88;5078238;28;20029;-73
2023/09/26 10:07:42;;;;;;;;;;;;;;;-145.50;100.00;65435.88;5048262;28;20868;-73
2023/09/26 10:10:09;;;;;;;;;;;;;;;-145.50;100.00;65435.88;5054741;28;19920;-73
2023/09/26 10:12:38;;;;;;;10.52;6.28;;;;;;;-145.50;100.00;65435.88;5067351;28;19924;-73
2023/09/26 10:15:13;;;;;;;9.02;5.47;;;;;;;-145.50;100.00;65435.88;5063650;28;20044;-73
2023/09/26 10:17:41;;;;;;;10.73;6.75;;;;;;;-145.50;100.00;65435.88;5067489;28;20131;-74
2023/09/26 10:20:12;;;;;;;8.45;6.03;;;;;;;-145.50;100.00;65435.88;5051143;28;20057;-73
2023/09/26 10:23:11;;;;;;;11.07;6.40;;;;;;;-145.50;100.00;65435.88;5044746;28;20135;-74
2023/09/26 10:25:37;;;;;;;10.88;6.00;;;;;;;-145.50;100.00;65435.88;5062320;28;20505;-74
2023/09/26 10:28:04;;;;;;;9.55;6.45;;;;;;;-145.50;100.00;65435.88;5045461;28;20067;-74
2023/09/26 10:30:41;;;;;;;;;;;;;;;-145.50;100.00;65435.88;5065554;28;20194;-73
2023/09/26 10:33:07;;;;;;;9.80;5.63;;;;;;;-145.50;100.00;65435.88;5051577;28;20301;-74
2023/09/26 10:35:44;;;;;;;7.80;5.72;;;;;;;-145.50;100.00;65435.88;5042515;28;20060;-74
2023/09/26 10:38:18;;;;;;;10.52;5.90;;;;;;;-145.50;100.00;65435.88;5043160;28;20432;-73
2023/09/26 10:40:46;;;;;;;8.57;5.70;;;;;;;-145.50;100.00;65435.88;5056640;28;20082;-73
2023/09/26 10:43:14;;;;;;;8.32;5.72;;;;;;;-145.50;100.00;65435.88;5053492;28;20057;-73
2023/09/26 10:46:01;;;;;;;7.15;4.82;;;;;;;-145.50;100.00;65435.88;5056683;28;20571;-73
2023/09/26 10:48:28;;;;;;;9.50;4.93;;;;;;;-145.50;100.00;65435.88;5063254;28;20068;-73
2023/09/26 10:50:54;;;;;;;7.95;4.68;;;;;;;-145.50;100.00;65435.88;5039688;28;20060;-73
2023/09/26 10:53:21;;;;;;;8.15;4.60;;;;;;;-145.50;100.00;65435.88;5055835;28;20064;-73
2023/09/26 10:55:48;;;;;;;14.27;4.63;;;;;;;-145.50;100.00;65435.88;5061839;28;20056;-74
2023/09/26 10:58:20;;;;;;;6.47;4.97;;;;;;;-145.50;100.00;65435.88;5069006;28;20094;-74
2023/09/26 11:00:51;;;;;;;11.02;5.05;;;;;;;-145.50;100.00;65435.88;5067317;28;20549;-73
2023/09/26 11:03:19;;;;;;;5.75;4.03;;;;;;;-145.50;100.00;65435.88;5045212;28;20533;-74
2023/09/26 11:05:46;;;;;;;5.68;3.88;;;;;;;-145.50;100.00;65435.88;5064154;28;20137;-73
2023/09/26 11:08:13;;;;;;;7.03;4.30;;;;;;;-145.50;100.00;65435.88;5051283;28;20110;-74